sensor_id;sensor_type;location;lat;lon;timestamp;P1;durP1;ratioP1;P2;durP2;ratioP2
4742;SDS011;24293;48.154;7.748;2023-06-22T00:01:57;27.47;;;11.87;;
4742;SDS011;24293;48.154;7.748;2023-06-22T00:04:24;29.20;;;12.43;;
4742;SDS011;24293;48.154;7.748;2023-06-22T00:06:50;23.47;;;12.80;;
4742;SDS011;24293;48.154;7.748;2023-06-22T00:09:17;29.00;;;14.33;;
4742;SDS011;24293;48.154;7.748;2023-06-22T00:11:43;32.70;;;13.67;;
4742;SDS011;24293;48.154;7.748;2023-06-22T00:14:11;28.97;;;13.23;;
4742;SDS011;24293;48.154;7.748;2023-06-22T00:16:38;22.80;;;12.50;;
4742;SDS011;24293;48.154;7.748;2023-06-22T00:19:04;26.13;;;12.90;;
4742;SDS011;24293;48.154;7.748;2023-06-22T00:21:31;23.33;;;11.77;;
4742;SDS011;24293;48.154;7.748;2023-06-22T00:23:57;25.70;;;13.07;;
4742;SDS011;24293;48.154;7.748;2023-06-22T00:26:23;33.87;;;13.50;;
4742;SDS011;24293;48.154;7.748;2023-06-22T00:28:50;24.03;;;11.73;;
4742;SDS011;24293;48.154;7.748;2023-06-22T00:31:18;20.00;;;11.20;;
4742;SDS011;24293;48.154;7.748;2023-06-22T00:33:45;32.60;;;12.33;;
4742;SDS011;24293;48.154;7.748;2023-06-22T00:36:11;34.70;;;12.03;;
4742;SDS011;24293;48.154;7.748;2023-06-22T00:38:41;26.97;;;11.20;;
4742;SDS011;24293;48.154;7.748;2023-06-22T00:41:07;33.20;;;11.00;;
4742;SDS011;24293;48.154;7.748;2023-06-22T00:43:34;35.60;;;11.13;;
4742;SDS011;24293;48.154;7.748;2023-06-22T00:46:00;40.20;;;10.80;;
4742;SDS011;24293;48.154;7.748;2023-06-22T00:48:28;28.03;;;10.77;;
4742;SDS011;24293;48.154;7.748;2023-06-22T00:50:55;21.97;;;12.97;;
4742;SDS011;24293;48.154;7.748;2023-06-22T00:53:21;20.97;;;13.53;;
4742;SDS011;24293;48.154;7.748;2023-06-22T00:55:48;21.73;;;14.40;;
4742;SDS011;24293;48.154;7.748;2023-06-22T00:58:16;22.27;;;13.40;;
4742;SDS011;24293;48.154;7.748;2023-06-22T01:00:43;21.00;;;13.27;;
4742;SDS011;24293;48.154;7.748;2023-06-22T01:03:09;15.30;;;11.03;;
4742;SDS011;24293;48.154;7.748;2023-06-22T01:05:38;16.23;;;10.30;;
4742;SDS011;24293;48.154;7.748;2023-06-22T01:08:06;25.50;;;10.60;;
4742;SDS011;24293;48.154;7.748;2023-06-22T01:10:36;48.53;;;13.13;;
4742;SDS011;24293;48.154;7.748;2023-06-22T01:13:06;24.80;;;11.73;;
4742;SDS011;24293;48.154;7.748;2023-06-22T01:15:35;19.33;;;12.37;;
4742;SDS011;24293;48.154;7.748;2023-06-22T01:18:04;33.40;;;14.27;;
4742;SDS011;24293;48.154;7.748;2023-06-22T01:20:32;41.83;;;12.90;;
4742;SDS011;24293;48.154;7.748;2023-06-22T01:23:05;28.20;;;13.27;;
4742;SDS011;24293;48.154;7.748;2023-06-22T01:25:35;32.20;;;19.23;;
4742;SDS011;24293;48.154;7.748;2023-06-22T01:28:03;25.63;;;16.60;;
4742;SDS011;24293;48.154;7.748;2023-06-22T01:30:32;26.37;;;15.00;;
4742;SDS011;24293;48.154;7.748;2023-06-22T01:33:00;21.50;;;13.17;;
4742;SDS011;24293;48.154;7.748;2023-06-22T01:35:27;24.77;;;14.13;;
4742;SDS011;24293;48.154;7.748;2023-06-22T01:37:54;21.03;;;14.57;;
4742;SDS011;24293;48.154;7.748;2023-06-22T01:40:21;21.73;;;14.70;;
4742;SDS011;24293;48.154;7.748;2023-06-22T01:42:48;34.03;;;21.77;;
4742;SDS011;24293;48.154;7.748;2023-06-22T01:45:14;38.57;;;22.03;;
4742;SDS011;24293;48.154;7.748;2023-06-22T01:47:43;60.03;;;31.30;;
4742;SDS011;24293;48.154;7.748;2023-06-22T01:50:10;47.50;;;25.20;;
4742;SDS011;24293;48.154;7.748;2023-06-22T01:52:36;29.47;;;17.23;;
4742;SDS011;24293;48.154;7.748;2023-06-22T01:55:03;36.57;;;16.10;;
4742;SDS011;24293;48.154;7.748;2023-06-22T01:57:31;58.20;;;32.97;;
4742;SDS011;24293;48.154;7.748;2023-06-22T01:59:59;58.57;;;33.60;;
4742;SDS011;24293;48.154;7.748;2023-06-22T02:02:27;36.93;;;25.17;;
4742;SDS011;24293;48.154;7.748;2023-06-22T02:04:58;35.87;;;19.73;;
4742;SDS011;24293;48.154;7.748;2023-06-22T02:07:27;35.20;;;16.30;;
4742;SDS011;24293;48.154;7.748;2023-06-22T02:09:55;28.43;;;16.20;;
4742;SDS011;24293;48.154;7.748;2023-06-22T02:12:23;30.70;;;16.60;;
4742;SDS011;24293;48.154;7.748;2023-06-22T02:14:52;23.07;;;14.83;;
4742;SDS011;24293;48.154;7.748;2023-06-22T02:17:19;28.13;;;15.17;;
4742;SDS011;24293;48.154;7.748;2023-06-22T02:19:46;30.17;;;16.40;;
4742;SDS011;24293;48.154;7.748;2023-06-22T02:22:13;25.27;;;16.57;;
4742;SDS011;24293;48.154;7.748;2023-06-22T02:24:40;22.90;;;14.90;;
4742;SDS011;24293;48.154;7.748;2023-06-22T02:27:06;21.90;;;15.00;;
4742;SDS011;24293;48.154;7.748;2023-06-22T02:29:33;28.90;;;14.73;;
4742;SDS011;24293;48.154;7.748;2023-06-22T02:32:00;32.63;;;15.97;;
4742;SDS011;24293;48.154;7.748;2023-06-22T02:34:26;32.77;;;15.63;;
4742;SDS011;24293;48.154;7.748;2023-06-22T02:36:52;32.53;;;16.73;;
4742;SDS011;24293;48.154;7.748;2023-06-22T02:39:21;26.00;;;13.93;;
4742;SDS011;24293;48.154;7.748;2023-06-22T02:41:47;24.63;;;16.23;;
4742;SDS011;24293;48.154;7.748;2023-06-22T02:44:14;33.63;;;16.10;;
4742;SDS011;24293;48.154;7.748;2023-06-22T02:46:41;25.73;;;14.83;;
4742;SDS011;24293;48.154;7.748;2023-06-22T02:49:07;24.30;;;14.50;;
4742;SDS011;24293;48.154;7.748;2023-06-22T02:51:34;22.77;;;15.80;;
4742;SDS011;24293;48.154;7.748;2023-06-22T02:54:00;22.87;;;14.93;;
4742;SDS011;24293;48.154;7.748;2023-06-22T02:56:28;22.93;;;14.23;;
4742;SDS011;24293;48.154;7.748;2023-06-22T02:58:55;26.50;;;16.33;;
4742;SDS011;24293;48.154;7.748;2023-06-22T03:01:26;23.50;;;14.80;;
4742;SDS011;24293;48.154;7.748;2023-06-22T03:03:53;27.50;;;15.23;;
4742;SDS011;24293;48.154;7.748;2023-06-22T03:06:19;22.90;;;13.80;;
4742;SDS011;24293;48.154;7.748;2023-06-22T03:08:48;23.07;;;14.60;;
4742;SDS011;24293;48.154;7.748;2023-06-22T03:11:14;25.00;;;15.53;;
4742;SDS011;24293;48.154;7.748;2023-06-22T03:13:42;18.83;;;13.37;;
4742;SDS011;24293;48.154;7.748;2023-06-22T03:16:10;23.50;;;15.30;;
4742;SDS011;24293;48.154;7.748;2023-06-22T03:18:37;21.93;;;13.80;;
4742;SDS011;24293;48.154;7.748;2023-06-22T03:21:03;21.30;;;14.43;;
4742;SDS011;24293;48.154;7.748;2023-06-22T03:23:30;22.90;;;15.47;;
4742;SDS011;24293;48.154;7.748;2023-06-22T03:25:56;21.43;;;14.83;;
4742;SDS011;24293;48.154;7.748;2023-06-22T03:28:23;25.90;;;15.40;;
4742;SDS011;24293;48.154;7.748;2023-06-22T03:30:51;26.20;;;14.37;;
4742;SDS011;24293;48.154;7.748;2023-06-22T03:33:17;20.93;;;14.57;;
4742;SDS011;24293;48.154;7.748;2023-06-22T03:35:44;23.17;;;14.63;;
4742;SDS011;24293;48.154;7.748;2023-06-22T03:38:10;22.17;;;15.93;;
4742;SDS011;24293;48.154;7.748;2023-06-22T03:40:37;22.00;;;14.37;;
4742;SDS011;24293;48.154;7.748;2023-06-22T03:43:03;25.07;;;15.00;;
4742;SDS011;24293;48.154;7.748;2023-06-22T03:45:29;29.83;;;16.27;;
4742;SDS011;24293;48.154;7.748;2023-06-22T03:47:57;27.43;;;15.10;;
4742;SDS011;24293;48.154;7.748;2023-06-22T03:50:24;32.53;;;15.63;;
4742;SDS011;24293;48.154;7.748;2023-06-22T03:52:50;24.70;;;15.30;;
4742;SDS011;24293;48.154;7.748;2023-06-22T03:55:19;26.63;;;17.80;;
4742;SDS011;24293;48.154;7.748;2023-06-22T03:57:45;27.67;;;18.63;;
4742;SDS011;24293;48.154;7.748;2023-06-22T04:00:12;26.90;;;16.70;;
4742;SDS011;24293;48.154;7.748;2023-06-22T04:02:38;30.27;;;16.60;;
4742;SDS011;24293;48.154;7.748;2023-06-22T04:05:08;32.50;;;18.03;;
4742;SDS011;24293;48.154;7.748;2023-06-22T04:07:34;28.50;;;15.70;;
4742;SDS011;24293;48.154;7.748;2023-06-22T04:10:02;34.33;;;16.60;;
4742;SDS011;24293;48.154;7.748;2023-06-22T04:12:29;36.43;;;17.70;;
4742;SDS011;24293;48.154;7.748;2023-06-22T04:14:55;38.83;;;17.83;;
4742;SDS011;24293;48.154;7.748;2023-06-22T04:17:22;36.10;;;18.27;;
4742;SDS011;24293;48.154;7.748;2023-06-22T04:19:50;28.60;;;17.40;;
4742;SDS011;24293;48.154;7.748;2023-06-22T04:22:17;33.23;;;17.40;;
4742;SDS011;24293;48.154;7.748;2023-06-22T04:24:44;34.93;;;17.53;;
4742;SDS011;24293;48.154;7.748;2023-06-22T04:27:10;26.00;;;17.27;;
4742;SDS011;24293;48.154;7.748;2023-06-22T04:29:37;36.00;;;16.70;;
4742;SDS011;24293;48.154;7.748;2023-06-22T04:32:08;36.63;;;18.00;;
4742;SDS011;24293;48.154;7.748;2023-06-22T04:34:38;32.17;;;18.30;;
4742;SDS011;24293;48.154;7.748;2023-06-22T04:37:04;34.03;;;19.07;;
4742;SDS011;24293;48.154;7.748;2023-06-22T04:39:32;40.37;;;18.17;;
4742;SDS011;24293;48.154;7.748;2023-06-22T04:41:58;38.23;;;18.20;;
4742;SDS011;24293;48.154;7.748;2023-06-22T04:44:26;37.00;;;17.93;;
4742;SDS011;24293;48.154;7.748;2023-06-22T04:46:53;36.63;;;16.90;;
4742;SDS011;24293;48.154;7.748;2023-06-22T04:49:24;38.97;;;17.63;;
4742;SDS011;24293;48.154;7.748;2023-06-22T04:51:58;26.90;;;17.50;;
4742;SDS011;24293;48.154;7.748;2023-06-22T04:54:24;29.97;;;16.27;;
4742;SDS011;24293;48.154;7.748;2023-06-22T04:56:52;33.87;;;15.30;;
4742;SDS011;24293;48.154;7.748;2023-06-22T04:59:21;30.27;;;14.30;;
4742;SDS011;24293;48.154;7.748;2023-06-22T05:01:48;26.30;;;14.40;;
4742;SDS011;24293;48.154;7.748;2023-06-22T05:04:16;25.03;;;13.90;;
4742;SDS011;24293;48.154;7.748;2023-06-22T05:06:43;22.10;;;13.33;;
4742;SDS011;24293;48.154;7.748;2023-06-22T05:09:10;29.40;;;13.57;;
4742;SDS011;24293;48.154;7.748;2023-06-22T05:11:37;22.87;;;13.70;;
4742;SDS011;24293;48.154;7.748;2023-06-22T05:14:05;24.67;;;13.17;;
4742;SDS011;24293;48.154;7.748;2023-06-22T05:16:32;35.20;;;14.10;;
4742;SDS011;24293;48.154;7.748;2023-06-22T05:18:59;26.77;;;14.17;;
4742;SDS011;24293;48.154;7.748;2023-06-22T05:21:28;33.37;;;13.80;;
4742;SDS011;24293;48.154;7.748;2023-06-22T05:23:54;36.53;;;14.70;;
4742;SDS011;24293;48.154;7.748;2023-06-22T05:26:25;25.13;;;13.80;;
4742;SDS011;24293;48.154;7.748;2023-06-22T05:28:52;31.23;;;15.67;;
4742;SDS011;24293;48.154;7.748;2023-06-22T05:31:20;22.53;;;14.20;;
4742;SDS011;24293;48.154;7.748;2023-06-22T05:33:47;27.13;;;15.10;;
4742;SDS011;24293;48.154;7.748;2023-06-22T05:36:14;20.03;;;13.10;;
4742;SDS011;24293;48.154;7.748;2023-06-22T05:38:40;30.80;;;16.60;;
4742;SDS011;24293;48.154;7.748;2023-06-22T05:41:07;31.33;;;14.30;;
4742;SDS011;24293;48.154;7.748;2023-06-22T05:43:34;22.37;;;13.80;;
4742;SDS011;24293;48.154;7.748;2023-06-22T05:46:01;32.80;;;15.87;;
4742;SDS011;24293;48.154;7.748;2023-06-22T05:48:29;22.97;;;14.73;;
4742;SDS011;24293;48.154;7.748;2023-06-22T05:50:55;23.70;;;15.37;;
4742;SDS011;24293;48.154;7.748;2023-06-22T05:53:22;25.93;;;13.50;;
4742;SDS011;24293;48.154;7.748;2023-06-22T05:55:48;25.80;;;15.20;;
4742;SDS011;24293;48.154;7.748;2023-06-22T05:58:15;28.90;;;17.13;;
4742;SDS011;24293;48.154;7.748;2023-06-22T06:00:42;29.27;;;15.17;;
4742;SDS011;24293;48.154;7.748;2023-06-22T06:03:09;29.80;;;16.97;;
4742;SDS011;24293;48.154;7.748;2023-06-22T06:05:37;33.67;;;18.80;;
4742;SDS011;24293;48.154;7.748;2023-06-22T06:08:04;38.40;;;19.30;;
4742;SDS011;24293;48.154;7.748;2023-06-22T06:10:31;36.90;;;19.93;;
4742;SDS011;24293;48.154;7.748;2023-06-22T06:12:58;42.83;;;22.00;;
4742;SDS011;24293;48.154;7.748;2023-06-22T06:15:27;30.43;;;21.07;;
4742;SDS011;24293;48.154;7.748;2023-06-22T06:17:53;37.27;;;19.83;;
4742;SDS011;24293;48.154;7.748;2023-06-22T06:20:20;33.50;;;19.30;;
4742;SDS011;24293;48.154;7.748;2023-06-22T06:22:48;34.90;;;21.10;;
4742;SDS011;24293;48.154;7.748;2023-06-22T06:25:15;38.90;;;21.67;;
4742;SDS011;24293;48.154;7.748;2023-06-22T06:27:42;37.93;;;21.40;;
4742;SDS011;24293;48.154;7.748;2023-06-22T06:30:09;33.53;;;19.47;;
4742;SDS011;24293;48.154;7.748;2023-06-22T06:32:36;33.40;;;19.57;;
4742;SDS011;24293;48.154;7.748;2023-06-22T06:35:03;31.70;;;19.90;;
4742;SDS011;24293;48.154;7.748;2023-06-22T06:37:30;36.83;;;19.87;;
4742;SDS011;24293;48.154;7.748;2023-06-22T06:39:57;33.20;;;19.37;;
4742;SDS011;24293;48.154;7.748;2023-06-22T06:42:24;34.07;;;19.33;;
4742;SDS011;24293;48.154;7.748;2023-06-22T06:44:50;29.23;;;18.67;;
4742;SDS011;24293;48.154;7.748;2023-06-22T06:47:17;33.40;;;23.50;;
4742;SDS011;24293;48.154;7.748;2023-06-22T06:49:44;35.27;;;21.20;;
4742;SDS011;24293;48.154;7.748;2023-06-22T06:52:10;29.83;;;20.10;;
4742;SDS011;24293;48.154;7.748;2023-06-22T06:54:37;32.03;;;20.43;;
4742;SDS011;24293;48.154;7.748;2023-06-22T06:57:05;24.17;;;17.47;;
4742;SDS011;24293;48.154;7.748;2023-06-22T06:59:31;29.23;;;19.50;;
4742;SDS011;24293;48.154;7.748;2023-06-22T07:01:58;32.13;;;20.63;;
4742;SDS011;24293;48.154;7.748;2023-06-22T07:04:25;37.07;;;20.57;;
4742;SDS011;24293;48.154;7.748;2023-06-22T07:06:51;27.33;;;19.33;;
4742;SDS011;24293;48.154;7.748;2023-06-22T07:09:18;34.53;;;22.60;;
4742;SDS011;24293;48.154;7.748;2023-06-22T07:11:44;32.90;;;20.70;;
4742;SDS011;24293;48.154;7.748;2023-06-22T07:14:12;27.23;;;19.87;;
4742;SDS011;24293;48.154;7.748;2023-06-22T07:16:38;29.93;;;19.90;;
4742;SDS011;24293;48.154;7.748;2023-06-22T07:19:05;32.80;;;21.30;;
4742;SDS011;24293;48.154;7.748;2023-06-22T07:21:31;27.43;;;19.70;;
4742;SDS011;24293;48.154;7.748;2023-06-22T07:23:58;32.53;;;19.17;;
4742;SDS011;24293;48.154;7.748;2023-06-22T07:26:24;30.13;;;18.90;;
4742;SDS011;24293;48.154;7.748;2023-06-22T07:28:51;29.20;;;19.83;;
4742;SDS011;24293;48.154;7.748;2023-06-22T07:31:19;30.53;;;20.27;;
4742;SDS011;24293;48.154;7.748;2023-06-22T07:33:45;34.00;;;20.13;;
4742;SDS011;24293;48.154;7.748;2023-06-22T07:36:12;30.43;;;19.80;;
4742;SDS011;24293;48.154;7.748;2023-06-22T07:38:38;32.20;;;20.77;;
4742;SDS011;24293;48.154;7.748;2023-06-22T07:41:05;32.30;;;20.30;;
4742;SDS011;24293;48.154;7.748;2023-06-22T07:43:31;26.90;;;18.37;;
4742;SDS011;24293;48.154;7.748;2023-06-22T07:45:59;31.53;;;19.97;;
4742;SDS011;24293;48.154;7.748;2023-06-22T07:48:27;31.17;;;20.00;;
4742;SDS011;24293;48.154;7.748;2023-06-22T07:50:53;32.13;;;18.50;;
4742;SDS011;24293;48.154;7.748;2023-06-22T07:53:20;31.97;;;18.20;;
4742;SDS011;24293;48.154;7.748;2023-06-22T07:55:46;33.33;;;18.10;;
4742;SDS011;24293;48.154;7.748;2023-06-22T07:58:13;37.00;;;18.27;;
4742;SDS011;24293;48.154;7.748;2023-06-22T08:00:40;32.63;;;19.47;;
4742;SDS011;24293;48.154;7.748;2023-06-22T08:03:07;31.17;;;18.63;;
4742;SDS011;24293;48.154;7.748;2023-06-22T08:05:35;30.87;;;18.30;;
4742;SDS011;24293;48.154;7.748;2023-06-22T08:08:01;31.50;;;18.17;;
4742;SDS011;24293;48.154;7.748;2023-06-22T08:10:28;28.13;;;17.60;;
4742;SDS011;24293;48.154;7.748;2023-06-22T08:12:54;26.20;;;16.33;;
4742;SDS011;24293;48.154;7.748;2023-06-22T08:15:21;25.30;;;16.23;;
4742;SDS011;24293;48.154;7.748;2023-06-22T08:17:48;30.17;;;15.77;;
4742;SDS011;24293;48.154;7.748;2023-06-22T08:20:14;31.07;;;15.30;;
4742;SDS011;24293;48.154;7.748;2023-06-22T08:22:42;24.93;;;14.33;;
4742;SDS011;24293;48.154;7.748;2023-06-22T08:25:09;24.20;;;13.93;;
4742;SDS011;24293;48.154;7.748;2023-06-22T08:27:35;23.13;;;14.40;;
4742;SDS011;24293;48.154;7.748;2023-06-22T08:30:02;20.20;;;13.50;;
4742;SDS011;24293;48.154;7.748;2023-06-22T08:32:29;32.10;;;17.77;;
4742;SDS011;24293;48.154;7.748;2023-06-22T08:34:57;29.90;;;15.67;;
4742;SDS011;24293;48.154;7.748;2023-06-22T08:37:24;18.87;;;12.93;;
4742;SDS011;24293;48.154;7.748;2023-06-22T08:39:56;24.70;;;13.30;;
4742;SDS011;24293;48.154;7.748;2023-06-22T08:42:23;20.13;;;12.53;;
4742;SDS011;24293;48.154;7.748;2023-06-22T08:44:50;22.27;;;11.70;;
4742;SDS011;24293;48.154;7.748;2023-06-22T08:47:17;21.70;;;11.03;;
4742;SDS011;24293;48.154;7.748;2023-06-22T08:49:44;20.90;;;11.83;;
4742;SDS011;24293;48.154;7.748;2023-06-22T08:52:11;19.40;;;13.43;;
4742;SDS011;24293;48.154;7.748;2023-06-22T08:54:37;20.20;;;12.30;;
4742;SDS011;24293;48.154;7.748;2023-06-22T08:57:05;22.10;;;12.30;;
4742;SDS011;24293;48.154;7.748;2023-06-22T08:59:37;23.40;;;13.33;;
4742;SDS011;24293;48.154;7.748;2023-06-22T09:02:12;30.40;;;11.70;;
4742;SDS011;24293;48.154;7.748;2023-06-22T09:04:38;20.37;;;12.40;;
4742;SDS011;24293;48.154;7.748;2023-06-22T09:07:05;19.60;;;11.10;;
4742;SDS011;24293;48.154;7.748;2023-06-22T09:09:32;18.13;;;10.73;;
4742;SDS011;24293;48.154;7.748;2023-06-22T09:11:58;17.70;;;10.47;;
4742;SDS011;24293;48.154;7.748;2023-06-22T09:14:26;21.50;;;10.70;;
4742;SDS011;24293;48.154;7.748;2023-06-22T09:16:52;19.47;;;11.40;;
4742;SDS011;24293;48.154;7.748;2023-06-22T09:19:19;18.03;;;11.60;;
4742;SDS011;24293;48.154;7.748;2023-06-22T09:21:45;22.70;;;11.50;;
4742;SDS011;24293;48.154;7.748;2023-06-22T09:24:12;17.70;;;10.83;;
4742;SDS011;24293;48.154;7.748;2023-06-22T09:26:39;23.00;;;10.57;;
4742;SDS011;24293;48.154;7.748;2023-06-22T09:29:06;20.17;;;10.93;;
4742;SDS011;24293;48.154;7.748;2023-06-22T09:31:33;18.77;;;10.07;;
4742;SDS011;24293;48.154;7.748;2023-06-22T09:34:00;19.80;;;10.73;;
4742;SDS011;24293;48.154;7.748;2023-06-22T09:36:26;19.07;;;9.87;;
4742;SDS011;24293;48.154;7.748;2023-06-22T09:38:53;15.50;;;10.20;;
4742;SDS011;24293;48.154;7.748;2023-06-22T09:41:23;19.27;;;11.13;;
4742;SDS011;24293;48.154;7.748;2023-06-22T09:43:50;19.20;;;9.63;;
4742;SDS011;24293;48.154;7.748;2023-06-22T09:46:17;17.27;;;10.00;;
4742;SDS011;24293;48.154;7.748;2023-06-22T09:48:44;17.77;;;9.70;;
4742;SDS011;24293;48.154;7.748;2023-06-22T09:51:11;16.17;;;9.90;;
4742;SDS011;24293;48.154;7.748;2023-06-22T09:53:38;20.40;;;9.77;;
4742;SDS011;24293;48.154;7.748;2023-06-22T09:56:04;16.30;;;8.90;;
4742;SDS011;24293;48.154;7.748;2023-06-22T09:58:31;19.60;;;8.23;;
4742;SDS011;24293;48.154;7.748;2023-06-22T10:00:58;19.87;;;10.57;;
4742;SDS011;24293;48.154;7.748;2023-06-22T10:03:24;24.47;;;8.87;;
4742;SDS011;24293;48.154;7.748;2023-06-22T10:05:52;19.20;;;9.00;;
4742;SDS011;24293;48.154;7.748;2023-06-22T10:08:19;24.23;;;9.17;;
4742;SDS011;24293;48.154;7.748;2023-06-22T10:10:45;23.03;;;9.33;;
4742;SDS011;24293;48.154;7.748;2023-06-22T10:13:12;23.27;;;10.00;;
4742;SDS011;24293;48.154;7.748;2023-06-22T10:15:38;17.07;;;10.10;;
4742;SDS011;24293;48.154;7.748;2023-06-22T10:18:05;16.03;;;9.53;;
4742;SDS011;24293;48.154;7.748;2023-06-22T10:20:31;20.30;;;9.17;;
4742;SDS011;24293;48.154;7.748;2023-06-22T10:22:59;22.90;;;9.40;;
4742;SDS011;24293;48.154;7.748;2023-06-22T10:25:26;27.03;;;9.90;;
4742;SDS011;24293;48.154;7.748;2023-06-22T10:27:52;20.40;;;10.17;;
4742;SDS011;24293;48.154;7.748;2023-06-22T10:30:22;24.73;;;9.40;;
4742;SDS011;24293;48.154;7.748;2023-06-22T10:32:48;22.10;;;9.60;;
4742;SDS011;24293;48.154;7.748;2023-06-22T10:35:15;17.00;;;8.10;;
4742;SDS011;24293;48.154;7.748;2023-06-22T10:37:42;17.43;;;10.07;;
4742;SDS011;24293;48.154;7.748;2023-06-22T10:40:11;19.40;;;9.63;;
4742;SDS011;24293;48.154;7.748;2023-06-22T10:42:37;22.30;;;8.87;;
4742;SDS011;24293;48.154;7.748;2023-06-22T10:45:04;17.03;;;8.50;;
4742;SDS011;24293;48.154;7.748;2023-06-22T10:47:31;22.57;;;9.67;;
4742;SDS011;24293;48.154;7.748;2023-06-22T10:49:57;21.17;;;10.37;;
4742;SDS011;24293;48.154;7.748;2023-06-22T10:52:24;21.13;;;9.47;;
4742;SDS011;24293;48.154;7.748;2023-06-22T10:54:50;18.17;;;11.13;;
4742;SDS011;24293;48.154;7.748;2023-06-22T10:57:18;18.70;;;9.90;;
4742;SDS011;24293;48.154;7.748;2023-06-22T10:59:45;22.77;;;10.90;;
4742;SDS011;24293;48.154;7.748;2023-06-22T11:02:11;22.10;;;11.50;;
4742;SDS011;24293;48.154;7.748;2023-06-22T11:04:38;24.60;;;9.80;;
4742;SDS011;24293;48.154;7.748;2023-06-22T11:07:05;18.53;;;9.97;;
4742;SDS011;24293;48.154;7.748;2023-06-22T11:09:31;19.37;;;9.63;;
4742;SDS011;24293;48.154;7.748;2023-06-22T11:11:58;17.20;;;10.50;;
4742;SDS011;24293;48.154;7.748;2023-06-22T11:14:26;22.67;;;11.90;;
4742;SDS011;24293;48.154;7.748;2023-06-22T11:16:53;22.53;;;10.53;;
4742;SDS011;24293;48.154;7.748;2023-06-22T11:19:19;19.93;;;11.40;;
4742;SDS011;24293;48.154;7.748;2023-06-22T11:21:46;20.30;;;10.37;;
4742;SDS011;24293;48.154;7.748;2023-06-22T11:24:13;19.63;;;10.10;;
4742;SDS011;24293;48.154;7.748;2023-06-22T11:26:39;20.27;;;10.93;;
4742;SDS011;24293;48.154;7.748;2023-06-22T11:29:06;21.33;;;10.07;;
4742;SDS011;24293;48.154;7.748;2023-06-22T11:31:35;18.20;;;10.40;;
4742;SDS011;24293;48.154;7.748;2023-06-22T11:34:01;21.33;;;9.70;;
4742;SDS011;24293;48.154;7.748;2023-06-22T11:36:28;19.73;;;10.70;;
4742;SDS011;24293;48.154;7.748;2023-06-22T11:38:57;21.63;;;11.20;;
4742;SDS011;24293;48.154;7.748;2023-06-22T11:41:24;15.00;;;9.30;;
4742;SDS011;24293;48.154;7.748;2023-06-22T11:43:51;23.33;;;10.80;;
4742;SDS011;24293;48.154;7.748;2023-06-22T11:46:17;24.10;;;10.37;;
4742;SDS011;24293;48.154;7.748;2023-06-22T11:48:45;17.13;;;10.50;;
4742;SDS011;24293;48.154;7.748;2023-06-22T11:51:11;19.73;;;9.47;;
4742;SDS011;24293;48.154;7.748;2023-06-22T11:53:38;16.17;;;9.47;;
4742;SDS011;24293;48.154;7.748;2023-06-22T11:56:04;18.30;;;9.47;;
4742;SDS011;24293;48.154;7.748;2023-06-22T11:58:31;18.20;;;10.10;;
4742;SDS011;24293;48.154;7.748;2023-06-22T12:00:57;18.67;;;9.77;;
4742;SDS011;24293;48.154;7.748;2023-06-22T12:03:24;22.30;;;10.00;;
4742;SDS011;24293;48.154;7.748;2023-06-22T12:05:52;24.27;;;11.00;;
4742;SDS011;24293;48.154;7.748;2023-06-22T12:08:18;15.80;;;8.40;;
4742;SDS011;24293;48.154;7.748;2023-06-22T12:10:45;20.53;;;7.70;;
4742;SDS011;24293;48.154;7.748;2023-06-22T12:13:11;20.30;;;11.03;;
4742;SDS011;24293;48.154;7.748;2023-06-22T12:15:39;18.23;;;9.23;;
4742;SDS011;24293;48.154;7.748;2023-06-22T12:18:05;18.40;;;9.17;;
4742;SDS011;24293;48.154;7.748;2023-06-22T12:20:32;16.40;;;7.40;;
4742;SDS011;24293;48.154;7.748;2023-06-22T12:23:00;19.57;;;7.60;;
4742;SDS011;24293;48.154;7.748;2023-06-22T12:25:26;17.07;;;7.40;;
4742;SDS011;24293;48.154;7.748;2023-06-22T12:27:53;19.50;;;6.93;;
4742;SDS011;24293;48.154;7.748;2023-06-22T12:30:20;24.40;;;7.13;;
4742;SDS011;24293;48.154;7.748;2023-06-22T12:32:47;18.67;;;7.27;;
4742;SDS011;24293;48.154;7.748;2023-06-22T12:35:14;22.00;;;6.40;;
4742;SDS011;24293;48.154;7.748;2023-06-22T12:37:41;19.27;;;7.10;;
4742;SDS011;24293;48.154;7.748;2023-06-22T12:40:10;19.47;;;6.90;;
4742;SDS011;24293;48.154;7.748;2023-06-22T12:42:36;15.60;;;6.20;;
4742;SDS011;24293;48.154;7.748;2023-06-22T12:45:03;19.00;;;7.30;;
4742;SDS011;24293;48.154;7.748;2023-06-22T12:47:30;15.97;;;6.00;;
4742;SDS011;24293;48.154;7.748;2023-06-22T12:49:57;16.77;;;6.73;;
4742;SDS011;24293;48.154;7.748;2023-06-22T12:52:26;25.77;;;7.77;;
4742;SDS011;24293;48.154;7.748;2023-06-22T12:54:53;16.93;;;6.63;;
4742;SDS011;24293;48.154;7.748;2023-06-22T12:57:21;19.53;;;6.80;;
4742;SDS011;24293;48.154;7.748;2023-06-22T12:59:47;18.10;;;6.87;;
4742;SDS011;24293;48.154;7.748;2023-06-22T13:02:14;30.00;;;7.73;;
4742;SDS011;24293;48.154;7.748;2023-06-22T13:04:40;17.43;;;6.20;;
4742;SDS011;24293;48.154;7.748;2023-06-22T13:07:08;18.20;;;8.17;;
4742;SDS011;24293;48.154;7.748;2023-06-22T13:09:35;14.73;;;6.90;;
4742;SDS011;24293;48.154;7.748;2023-06-22T13:12:02;16.43;;;7.17;;
4742;SDS011;24293;48.154;7.748;2023-06-22T13:14:30;17.87;;;7.63;;
4742;SDS011;24293;48.154;7.748;2023-06-22T13:16:57;17.03;;;6.70;;
4742;SDS011;24293;48.154;7.748;2023-06-22T13:19:23;17.27;;;6.80;;
4742;SDS011;24293;48.154;7.748;2023-06-22T13:21:51;14.60;;;6.73;;
4742;SDS011;24293;48.154;7.748;2023-06-22T13:24:17;15.33;;;6.37;;
4742;SDS011;24293;48.154;7.748;2023-06-22T13:26:44;16.07;;;7.13;;
4742;SDS011;24293;48.154;7.748;2023-06-22T13:29:10;12.20;;;7.10;;
4742;SDS011;24293;48.154;7.748;2023-06-22T13:31:38;19.20;;;6.80;;
4742;SDS011;24293;48.154;7.748;2023-06-22T13:34:05;12.67;;;5.93;;
4742;SDS011;24293;48.154;7.748;2023-06-22T13:36:32;18.60;;;6.03;;
4742;SDS011;24293;48.154;7.748;2023-06-22T13:38:59;13.50;;;5.80;;
4742;SDS011;24293;48.154;7.748;2023-06-22T13:41:25;20.50;;;7.43;;
4742;SDS011;24293;48.154;7.748;2023-06-22T13:43:52;23.87;;;7.30;;
4742;SDS011;24293;48.154;7.748;2023-06-22T13:46:18;16.80;;;7.20;;
4742;SDS011;24293;48.154;7.748;2023-06-22T13:48:46;25.00;;;7.27;;
4742;SDS011;24293;48.154;7.748;2023-06-22T13:51:13;15.27;;;6.40;;
4742;SDS011;24293;48.154;7.748;2023-06-22T13:53:39;18.43;;;6.77;;
4742;SDS011;24293;48.154;7.748;2023-06-22T13:56:06;19.80;;;7.60;;
4742;SDS011;24293;48.154;7.748;2023-06-22T13:58:32;13.70;;;7.33;;
4742;SDS011;24293;48.154;7.748;2023-06-22T14:00:59;11.37;;;5.53;;
4742;SDS011;24293;48.154;7.748;2023-06-22T14:03:25;15.37;;;7.00;;
4742;SDS011;24293;48.154;7.748;2023-06-22T14:05:53;17.80;;;6.50;;
4742;SDS011;24293;48.154;7.748;2023-06-22T14:08:22;15.87;;;6.90;;
4742;SDS011;24293;48.154;7.748;2023-06-22T14:10:50;19.57;;;6.60;;
4742;SDS011;24293;48.154;7.748;2023-06-22T14:13:18;18.60;;;7.40;;
4742;SDS011;24293;48.154;7.748;2023-06-22T14:15:45;18.60;;;7.03;;
4742;SDS011;24293;48.154;7.748;2023-06-22T14:18:13;14.60;;;6.80;;
4742;SDS011;24293;48.154;7.748;2023-06-22T14:20:40;13.50;;;6.30;;
4742;SDS011;24293;48.154;7.748;2023-06-22T14:23:08;22.90;;;6.10;;
4742;SDS011;24293;48.154;7.748;2023-06-22T14:25:34;20.43;;;6.60;;
4742;SDS011;24293;48.154;7.748;2023-06-22T14:28:01;18.03;;;6.03;;
4742;SDS011;24293;48.154;7.748;2023-06-22T14:30:27;15.80;;;6.30;;
4742;SDS011;24293;48.154;7.748;2023-06-22T14:32:54;15.30;;;5.83;;
4742;SDS011;24293;48.154;7.748;2023-06-22T14:35:20;16.03;;;6.13;;
4742;SDS011;24293;48.154;7.748;2023-06-22T14:37:47;13.67;;;6.17;;